createdAt,value
2022-08-22T00:02:46.133Z,6.10
2022-08-22T00:04:59.709Z,7.18
2022-08-22T00:10:24.964Z,7.15
2022-08-22T00:15:44.235Z,7.47
2022-08-22T00:20:54.094Z,6.70
2022-08-22T00:26:06.941Z,6.80
2022-08-22T00:37:02.281Z,6.72
2022-08-22T00:42:31.646Z,7.57
2022-08-22T00:47:53.501Z,6.07
2022-08-22T00:53:17.449Z,6.88
2022-08-22T00:58:34.149Z,6.88
2022-08-22T01:03:48.455Z,7.68
2022-08-22T01:09:23.250Z,7.20
2022-08-22T01:14:46.369Z,6.47
2022-08-22T01:20:24.931Z,7.57
2022-08-22T01:25:45.363Z,7.25
2022-08-22T01:31:07.579Z,6.78
2022-08-22T01:36:43.218Z,7.50
2022-08-22T01:42:00.073Z,7.13
2022-08-22T01:47:13.947Z,7.10
2022-08-22T01:52:29.269Z,6.10
2022-08-22T01:57:31.061Z,5.80
2022-08-22T02:02:40.576Z,5.40
2022-08-22T02:08:00.983Z,7.20
2022-08-22T02:13:12.378Z,6.85
2022-08-22T02:18:25.870Z,7.75
2022-08-22T02:24:00.274Z,8.10
2022-08-22T02:29:11.878Z,8.98
2022-08-22T02:34:34.030Z,8.73
2022-08-22T02:39:39.816Z,9.82
2022-08-22T02:44:50.737Z,7.53
2022-08-22T02:50:23.128Z,8.13
2022-08-22T02:56:08.721Z,8.23
2022-08-22T03:01:24.883Z,7.90
2022-08-22T03:06:40.049Z,8.32
2022-08-22T03:12:03.939Z,8.23
2022-08-22T03:17:17.721Z,8.15
2022-08-22T03:22:32.084Z,7.63
2022-08-22T03:27:40.618Z,7.80
2022-08-22T03:32:55.812Z,8.55
2022-08-22T03:38:44.570Z,7.50
2022-08-22T03:44:08.289Z,7.60
2022-08-22T03:49:25.407Z,6.78
2022-08-22T03:55:09.099Z,6.53
2022-08-22T04:00:36.536Z,7.85
2022-08-22T04:05:44.310Z,7.05
2022-08-22T04:11:33.112Z,7.80
2022-08-22T04:16:49.662Z,6.35
2022-08-22T04:21:54.375Z,7.32
2022-08-22T04:27:02.437Z,2.80
2022-08-22T04:32:25.375Z,3.55
2022-08-22T04:43:12.511Z,6.63
2022-08-22T04:48:27.879Z,2.88
2022-08-22T04:53:48.040Z,5.07
2022-08-22T04:58:58.147Z,4.00
2022-08-22T05:04:05.850Z,6.28
2022-08-22T05:09:16.215Z,7.85
2022-08-22T05:14:27.974Z,8.98
2022-08-22T05:19:34.694Z,8.27
2022-08-22T05:24:42.328Z,9.15
2022-08-22T05:29:48.583Z,7.30
2022-08-22T05:34:54.070Z,8.15
2022-08-22T05:40:00.124Z,9.15
2022-08-22T05:45:05.355Z,9.98
2022-08-22T05:50:10.146Z,9.25
2022-08-22T05:55:17.739Z,8.88
2022-08-22T06:00:22.603Z,9.57
2022-08-22T06:05:28.486Z,10.15
2022-08-22T06:11:00.107Z,9.20
2022-08-22T06:16:14.052Z,8.43
2022-08-22T06:21:32.532Z,9.13
2022-08-22T06:26:40.042Z,9.15
2022-08-22T06:31:46.549Z,9.00
2022-08-22T06:36:51.172Z,8.85
2022-08-22T06:42:04.752Z,9.85
2022-08-22T06:47:12.165Z,8.05
2022-08-22T06:52:23.598Z,7.45
2022-08-22T06:57:30.177Z,6.18
2022-08-22T07:02:40.686Z,6.60
2022-08-22T07:07:42.395Z,5.32
2022-08-22T07:12:48.097Z,5.50
2022-08-22T07:17:54.353Z,5.22
2022-08-22T07:23:00.206Z,5.95
2022-08-22T07:28:36.571Z,5.20
2022-08-22T07:33:44.767Z,5.07
2022-08-22T07:39:29.943Z,5.40
2022-08-22T07:44:41.394Z,4.60
2022-08-22T07:49:54.537Z,3.90
2022-08-22T07:55:22.735Z,4.13
2022-08-22T08:00:25.449Z,3.70
2022-08-22T08:10:37.356Z,3.00
2022-08-22T08:15:42.867Z,2.53
2022-08-22T08:20:49.271Z,2.42
2022-08-22T08:26:07.328Z,2.88
2022-08-22T08:31:17.987Z,2.50
2022-08-22T08:36:34.169Z,2.72
2022-08-22T08:42:01.209Z,2.47
2022-08-22T08:47:05.770Z,2.42
2022-08-22T08:52:27.984Z,3.05
2022-08-22T08:57:46.976Z,2.97
2022-08-22T09:08:44.417Z,2.95
2022-08-22T09:13:59.888Z,2.38
2022-08-22T09:19:19.953Z,2.80
2022-08-22T09:24:33.809Z,2.55
2022-08-22T09:29:54.580Z,2.33
2022-08-22T09:35:23.152Z,2.20
2022-08-22T09:40:15.326Z,2.55
2022-08-22T09:40:47.762Z,2.20
2022-08-22T09:46:06.655Z,2.15
2022-08-22T09:51:31.921Z,1.60
2022-08-22T09:56:50.582Z,2.00
2022-08-22T10:02:07.218Z,1.90
2022-08-22T10:07:20.531Z,2.10
2022-08-22T10:13:04.970Z,1.90
2022-08-22T10:18:18.501Z,1.83
2022-08-22T10:23:25.688Z,1.90
2022-08-22T10:28:40.061Z,1.77
2022-08-22T10:34:04.219Z,1.95
2022-08-22T10:39:11.848Z,2.30
2022-08-22T10:44:21.703Z,2.50
2022-08-22T10:49:35.455Z,1.90
2022-08-22T10:54:44.893Z,1.90
2022-08-22T10:59:59.484Z,2.20
2022-08-22T11:05:37.151Z,2.22
2022-08-22T11:10:53.771Z,2.00
2022-08-22T11:16:07.738Z,1.95
2022-08-22T11:21:27.593Z,2.03
2022-08-22T11:26:46.985Z,1.80
2022-08-22T11:32:16.915Z,2.03
2022-08-22T11:37:46.011Z,2.10
2022-08-22T11:42:58.031Z,2.13
2022-08-22T11:48:24.406Z,2.45
2022-08-22T11:53:39.581Z,2.00
2022-08-22T11:58:50.557Z,2.00
2022-08-22T12:04:15.829Z,1.90
2022-08-22T12:09:25.299Z,2.15
2022-08-22T12:14:36.027Z,1.90
2022-08-22T12:20:14.969Z,2.08
2022-08-22T12:25:45.423Z,1.90
2022-08-22T12:31:12.747Z,2.08
2022-08-22T12:36:22.436Z,1.73
2022-08-22T12:41:57.985Z,1.77
2022-08-22T12:47:17.315Z,1.60
2022-08-22T12:52:47.463Z,1.60
2022-08-22T12:57:58.069Z,1.70
2022-08-22T13:03:09.589Z,1.30
2022-08-22T13:08:22.168Z,1.50
2022-08-22T13:13:43.478Z,1.50
2022-08-22T13:19:07.368Z,1.85
2022-08-22T13:24:16.809Z,1.60
2022-08-22T13:29:39.552Z,1.58
2022-08-22T13:34:50.819Z,1.67
2022-08-22T13:39:58.265Z,1.70
2022-08-22T13:45:12.094Z,1.58
2022-08-22T13:50:19.211Z,1.80
2022-08-22T13:55:21.085Z,1.42
2022-08-22T14:00:58.267Z,1.70
2022-08-22T14:06:32.535Z,1.92
2022-08-22T14:11:30.977Z,1.92
2022-08-22T14:16:38.971Z,1.77
2022-08-22T14:21:45.366Z,1.70
2022-08-22T14:27:05.515Z,1.70
2022-08-22T14:32:35.528Z,1.80
2022-08-22T14:37:41.811Z,1.58
2022-08-22T14:43:05.175Z,1.73
2022-08-22T14:48:29.857Z,1.80
2022-08-22T14:53:37.103Z,1.60
2022-08-22T14:58:50.815Z,1.50
2022-08-22T15:03:59.201Z,1.70
2022-08-22T15:09:07.955Z,1.70
2022-08-22T15:14:21.440Z,1.85
2022-08-22T15:19:43.069Z,2.00
2022-08-22T15:25:04.951Z,1.98
2022-08-22T15:30:16.589Z,2.00
2022-08-22T15:35:32.085Z,1.77
2022-08-22T15:40:45.725Z,1.80
2022-08-22T15:45:50.393Z,2.10
2022-08-22T15:51:02.838Z,1.80
2022-08-22T15:56:13.891Z,2.17
2022-08-22T16:01:22.441Z,2.00
2022-08-22T16:06:46.652Z,1.70
2022-08-22T16:11:54.893Z,1.70
2022-08-22T16:17:01.362Z,1.80
2022-08-22T16:22:06.711Z,1.92
2022-08-22T16:27:19.172Z,1.70
2022-08-22T16:32:28.192Z,2.08
2022-08-22T16:37:35.613Z,1.90
2022-08-22T16:42:40.669Z,1.80
2022-08-22T16:47:54.504Z,1.73
2022-08-22T16:53:10.198Z,1.80
2022-08-22T16:58:12.091Z,1.80
2022-08-22T17:03:35.435Z,1.90
2022-08-22T17:08:57.243Z,1.73
2022-08-22T17:14:08.507Z,1.80
2022-08-22T17:19:35.616Z,1.70
2022-08-22T17:24:59.411Z,1.77
2022-08-22T17:30:15.528Z,1.58
2022-08-22T17:35:38.901Z,1.48
2022-08-22T17:40:57.551Z,1.30
2022-08-22T17:46:28.601Z,1.33
2022-08-22T17:51:38.889Z,1.73
2022-08-22T17:56:47.268Z,1.80
2022-08-22T18:02:01.291Z,1.67
2022-08-22T18:07:14.978Z,2.00
2022-08-22T18:12:28.324Z,1.70
2022-08-22T18:17:50.764Z,1.60
2022-08-22T18:22:57.699Z,1.88
2022-08-22T18:28:11.696Z,1.98
2022-08-22T18:33:28.153Z,2.03
2022-08-22T18:38:51.523Z,2.20
2022-08-22T18:43:53.551Z,2.30
2022-08-22T18:49:14.478Z,2.40
2022-08-22T18:54:36.923Z,2.13
2022-08-22T18:59:56.901Z,2.35
2022-08-22T19:05:24.578Z,2.05
2022-08-22T19:10:35.498Z,2.50
2022-08-22T19:16:05.399Z,2.40
2022-08-22T19:21:42.128Z,2.30
2022-08-22T19:26:48.062Z,2.60
2022-08-22T19:31:52.647Z,2.15
2022-08-22T19:37:32.209Z,2.45
2022-08-22T19:42:36.564Z,2.25
2022-08-22T19:47:42.697Z,2.60
2022-08-22T19:52:56.648Z,2.40
2022-08-22T19:58:37.857Z,2.67
2022-08-22T20:03:59.074Z,2.35
2022-08-22T20:09:30.484Z,2.40
2022-08-22T20:14:36.541Z,2.22
2022-08-22T20:20:16.511Z,2.55
2022-08-22T20:25:43.107Z,2.10
2022-08-22T20:30:46.948Z,2.65
2022-08-22T20:35:59.145Z,2.45
2022-08-22T20:41:23.694Z,2.60
2022-08-22T20:46:43.814Z,2.50
2022-08-22T20:51:54.335Z,2.70
2022-08-22T20:57:01.359Z,2.80
2022-08-22T21:02:19.021Z,2.45
2022-08-22T21:07:41.851Z,2.60
2022-08-22T21:12:59.855Z,2.50
2022-08-22T21:18:02.046Z,2.60
2022-08-22T21:23:08.896Z,3.10
2022-08-22T21:28:11.243Z,2.78
2022-08-22T21:33:23.961Z,2.88
2022-08-22T21:38:27.393Z,2.90
2022-08-22T21:43:36.973Z,3.45
2022-08-22T21:48:56.514Z,2.92
2022-08-22T21:54:33.563Z,2.70
2022-08-22T21:59:51.417Z,3.00
2022-08-22T22:05:02.372Z,3.60
2022-08-22T22:10:06.011Z,3.67
2022-08-22T22:15:09.429Z,3.53
2022-08-22T22:20:12.791Z,2.63
2022-08-22T22:25:38.901Z,3.20
2022-08-22T22:30:39.552Z,2.95
2022-08-22T22:35:41.382Z,3.47
2022-08-22T22:40:43.210Z,3.65
2022-08-22T22:45:44.977Z,3.65
2022-08-22T22:50:47.299Z,3.67
2022-08-22T22:55:59.979Z,3.20
2022-08-22T23:01:22.295Z,2.92
2022-08-22T23:06:26.482Z,4.00
2022-08-22T23:11:30.196Z,4.00
2022-08-22T23:16:37.023Z,4.22
2022-08-22T23:21:40.655Z,4.40
2022-08-22T23:26:42.788Z,3.85
2022-08-22T23:31:57.022Z,3.97
2022-08-22T23:37:00.734Z,3.40
2022-08-22T23:42:02.706Z,4.32
2022-08-22T23:47:06.511Z,4.10
2022-08-22T23:52:09.775Z,4.60
2022-08-22T23:57:12.729Z,4.22
